sensor_id;sensor_type;location;lat;lon;timestamp;pressure;altitude;pressure_sealevel;temperature;humidity
39455;BME280;25155;41.890;23.446;2023-05-23T00:00:17;91738.06;;;12.91;69.71
39455;BME280;25155;41.890;23.446;2023-05-23T00:02:44;91736.00;;;12.88;70.10
39455;BME280;25155;41.890;23.446;2023-05-23T00:05:11;91736.00;;;12.88;69.61
39455;BME280;25155;41.890;23.446;2023-05-23T00:07:41;91734.91;;;12.89;69.85
39455;BME280;25155;41.890;23.446;2023-05-23T00:10:08;91737.25;;;12.90;69.55
39455;BME280;25155;41.890;23.446;2023-05-23T00:12:36;91731.25;;;12.90;69.36
39455;BME280;25155;41.890;23.446;2023-05-23T00:15:04;91731.75;;;12.92;69.13
39455;BME280;25155;41.890;23.446;2023-05-23T00:17:33;91731.47;;;12.93;68.86
39455;BME280;25155;41.890;23.446;2023-05-23T00:20:01;91734.34;;;12.92;68.66
39455;BME280;25155;41.890;23.446;2023-05-23T00:22:29;91733.09;;;12.89;68.60
39455;BME280;25155;41.890;23.446;2023-05-23T00:24:57;91732.81;;;12.91;68.39
39455;BME280;25155;41.890;23.446;2023-05-23T00:27:26;91727.34;;;12.87;68.05
39455;BME280;25155;41.890;23.446;2023-05-23T00:29:53;91730.31;;;12.81;67.93
39455;BME280;25155;41.890;23.446;2023-05-23T00:32:20;91732.50;;;12.73;68.24
39455;BME280;25155;41.890;23.446;2023-05-23T00:34:47;91743.09;;;12.63;67.95
39455;BME280;25155;41.890;23.446;2023-05-23T00:37:13;91735.63;;;12.51;68.11
39455;BME280;25155;41.890;23.446;2023-05-23T00:39:41;91748.50;;;12.48;67.97
39455;BME280;25155;41.890;23.446;2023-05-23T00:42:09;91742.53;;;12.42;68.47
39455;BME280;25155;41.890;23.446;2023-05-23T00:44:36;91739.41;;;12.40;68.43
39455;BME280;25155;41.890;23.446;2023-05-23T00:47:04;91740.72;;;12.37;68.19
39455;BME280;25155;41.890;23.446;2023-05-23T00:49:33;91738.41;;;12.36;68.09
39455;BME280;25155;41.890;23.446;2023-05-23T00:52:01;91738.44;;;12.31;68.35
39455;BME280;25155;41.890;23.446;2023-05-23T00:54:30;91748.25;;;12.20;69.01
39455;BME280;25155;41.890;23.446;2023-05-23T00:56:58;91750.66;;;12.11;69.31
39455;BME280;25155;41.890;23.446;2023-05-23T00:59:26;91755.66;;;12.08;69.20
39455;BME280;25155;41.890;23.446;2023-05-23T01:01:53;91746.03;;;12.03;69.17
39455;BME280;25155;41.890;23.446;2023-05-23T01:04:22;91746.03;;;12.03;68.79
39455;BME280;25155;41.890;23.446;2023-05-23T01:06:51;91747.38;;;12.00;68.76
39455;BME280;25155;41.890;23.446;2023-05-23T01:09:19;91741.38;;;12.00;68.66
39455;BME280;25155;41.890;23.446;2023-05-23T01:11:49;91741.66;;;11.98;68.48
39455;BME280;25155;41.890;23.446;2023-05-23T01:17:25;91753.25;;;11.82;68.67
39455;BME280;25155;41.890;23.446;2023-05-23T01:19:58;91737.09;;;11.80;68.71
39455;BME280;25155;41.890;23.446;2023-05-23T01:25:16;91743.34;;;11.79;68.70
39455;BME280;25155;41.890;23.446;2023-05-23T01:27:50;91736.28;;;11.79;68.60
39455;BME280;25155;41.890;23.446;2023-05-23T01:30:18;91735.50;;;11.79;68.50
39455;BME280;25155;41.890;23.446;2023-05-23T01:32:47;91732.41;;;11.77;68.92
39455;BME280;25155;41.890;23.446;2023-05-23T01:35:15;91742.16;;;11.66;69.29
39455;BME280;25155;41.890;23.446;2023-05-23T01:37:45;91739.13;;;11.54;69.37
39455;BME280;25155;41.890;23.446;2023-05-23T01:40:12;91735.75;;;11.48;69.58
39455;BME280;25155;41.890;23.446;2023-05-23T01:42:39;91734.75;;;11.44;69.50
39455;BME280;25155;41.890;23.446;2023-05-23T01:45:09;91739.16;;;11.43;69.08
39455;BME280;25155;41.890;23.446;2023-05-23T01:47:36;91731.63;;;11.42;68.62
39455;BME280;25155;41.890;23.446;2023-05-23T01:50:04;91738.69;;;11.36;68.97
39455;BME280;25155;41.890;23.446;2023-05-23T01:52:32;91738.47;;;11.33;69.34
39455;BME280;25155;41.890;23.446;2023-05-23T01:54:59;91740.59;;;11.31;69.33
39455;BME280;25155;41.890;23.446;2023-05-23T01:57:27;91740.34;;;11.27;69.20
39455;BME280;25155;41.890;23.446;2023-05-23T01:59:55;91743.22;;;11.25;69.03
39455;BME280;25155;41.890;23.446;2023-05-23T02:02:23;91732.81;;;11.15;70.37
39455;BME280;25155;41.890;23.446;2023-05-23T02:04:50;91743.56;;;11.08;70.84
39455;BME280;25155;41.890;23.446;2023-05-23T02:07:18;91736.00;;;11.07;70.63
39455;BME280;25155;41.890;23.446;2023-05-23T02:09:47;91734.47;;;11.06;70.35
39455;BME280;25155;41.890;23.446;2023-05-23T02:12:14;91739.94;;;11.04;70.15
39455;BME280;25155;41.890;23.446;2023-05-23T02:14:41;91741.78;;;11.04;70.13
39455;BME280;25155;41.890;23.446;2023-05-23T02:17:09;91734.22;;;11.02;69.83
39455;BME280;25155;41.890;23.446;2023-05-23T02:19:37;91727.97;;;10.98;70.11
39455;BME280;25155;41.890;23.446;2023-05-23T02:22:04;91732.91;;;11.00;69.47
39455;BME280;25155;41.890;23.446;2023-05-23T02:24:31;91730.84;;;10.97;69.33
39455;BME280;25155;41.890;23.446;2023-05-23T02:26:58;91729.84;;;10.93;69.69
39455;BME280;25155;41.890;23.446;2023-05-23T02:29:24;91730.91;;;10.86;70.51
39455;BME280;25155;41.890;23.446;2023-05-23T02:31:51;91729.63;;;10.79;70.59
39455;BME280;25155;41.890;23.446;2023-05-23T02:34:18;91732.00;;;10.75;70.85
39455;BME280;25155;41.890;23.446;2023-05-23T02:36:47;91730.72;;;10.73;70.67
39455;BME280;25155;41.890;23.446;2023-05-23T02:39:14;91735.13;;;10.72;70.10
39455;BME280;25155;41.890;23.446;2023-05-23T02:41:41;91732.53;;;10.72;70.14
39455;BME280;25155;41.890;23.446;2023-05-23T02:44:07;91729.16;;;10.71;69.98
39455;BME280;25155;41.890;23.446;2023-05-23T02:46:34;91725.78;;;10.71;70.14
39455;BME280;25155;41.890;23.446;2023-05-23T02:49:02;91726.81;;;10.70;69.86
39455;BME280;25155;41.890;23.446;2023-05-23T02:51:29;91727.56;;;10.70;69.89
39455;BME280;25155;41.890;23.446;2023-05-23T02:53:58;91735.13;;;10.72;69.76
39455;BME280;25155;41.890;23.446;2023-05-23T02:56:25;91729.41;;;10.70;69.92
39455;BME280;25155;41.890;23.446;2023-05-23T02:58:52;91727.09;;;10.63;70.12
39455;BME280;25155;41.890;23.446;2023-05-23T03:01:19;91732.09;;;10.55;70.06
39455;BME280;25155;41.890;23.446;2023-05-23T03:03:46;91727.94;;;10.48;70.04
39455;BME280;25155;41.890;23.446;2023-05-23T03:06:12;91720.91;;;10.44;69.87
39455;BME280;25155;41.890;23.446;2023-05-23T03:08:41;91725.34;;;10.43;69.92
39455;BME280;25155;41.890;23.446;2023-05-23T03:11:09;91728.72;;;10.44;69.92
39455;BME280;25155;41.890;23.446;2023-05-23T03:13:37;91721.16;;;10.42;69.58
39455;BME280;25155;41.890;23.446;2023-05-23T03:16:03;91715.97;;;10.37;70.32
39455;BME280;25155;41.890;23.446;2023-05-23T03:18:30;91725.91;;;10.25;70.86
39455;BME280;25155;41.890;23.446;2023-05-23T03:20:57;91733.47;;;10.16;70.99
39455;BME280;25155;41.890;23.446;2023-05-23T03:23:24;91725.66;;;10.16;70.91
39455;BME280;25155;41.890;23.446;2023-05-23T03:25:51;91726.44;;;10.16;70.63
39455;BME280;25155;41.890;23.446;2023-05-23T03:28:19;91728.53;;;10.20;70.43
39455;BME280;25155;41.890;23.446;2023-05-23T03:30:46;91732.94;;;10.24;70.31
39455;BME280;25155;41.890;23.446;2023-05-23T03:33:13;91736.84;;;10.27;70.16
39455;BME280;25155;41.890;23.446;2023-05-23T03:35:40;91733.19;;;10.28;70.05
39455;BME280;25155;41.890;23.446;2023-05-23T03:38:08;91734.47;;;10.30;70.39
39455;BME280;25155;41.890;23.446;2023-05-23T03:40:35;91736.84;;;10.32;69.99
39455;BME280;25155;41.890;23.446;2023-05-23T03:43:03;91737.09;;;10.30;69.86
39455;BME280;25155;41.890;23.446;2023-05-23T03:45:31;91736.06;;;10.31;69.83
39455;BME280;25155;41.890;23.446;2023-05-23T03:47:58;91733.97;;;10.33;69.82
39455;BME280;25155;41.890;23.446;2023-05-23T03:50:25;91737.09;;;10.36;69.73
39455;BME280;25155;41.890;23.446;2023-05-23T03:52:52;91726.41;;;10.37;70.18
39455;BME280;25155;41.890;23.446;2023-05-23T03:55:19;91726.16;;;10.39;69.67
39455;BME280;25155;41.890;23.446;2023-05-23T03:57:49;91720.66;;;10.40;69.93
39455;BME280;25155;41.890;23.446;2023-05-23T04:00:16;91720.66;;;10.40;70.74
39455;BME280;25155;41.890;23.446;2023-05-23T04:02:44;91720.16;;;10.38;71.77
39455;BME280;25155;41.890;23.446;2023-05-23T04:05:12;91726.16;;;10.39;71.36
39455;BME280;25155;41.890;23.446;2023-05-23T04:07:38;91719.63;;;10.41;71.38
39455;BME280;25155;41.890;23.446;2023-05-23T04:10:06;91725.88;;;10.40;71.85
39455;BME280;25155;41.890;23.446;2023-05-23T04:12:33;91729.00;;;10.42;72.09
39455;BME280;25155;41.890;23.446;2023-05-23T04:15:01;91732.66;;;10.46;72.56
39455;BME280;25155;41.890;23.446;2023-05-23T04:17:28;91735.22;;;10.51;72.54
39455;BME280;25155;41.890;23.446;2023-05-23T04:19:57;91739.66;;;10.56;72.34
39455;BME280;25155;41.890;23.446;2023-05-23T04:22:23;91736.22;;;10.61;72.05
39455;BME280;25155;41.890;23.446;2023-05-23T04:24:51;91739.59;;;10.66;72.04
39455;BME280;25155;41.890;23.446;2023-05-23T04:27:18;91736.47;;;10.69;71.95
39455;BME280;25155;41.890;23.446;2023-05-23T04:29:46;91737.75;;;10.72;71.83
39455;BME280;25155;41.890;23.446;2023-05-23T04:32:13;91739.56;;;10.77;71.77
39455;BME280;25155;41.890;23.446;2023-05-23T04:34:41;91740.34;;;10.82;71.75
39455;BME280;25155;41.890;23.446;2023-05-23T04:37:10;91729.91;;;10.82;72.12
39455;BME280;25155;41.890;23.446;2023-05-23T04:39:37;91731.97;;;10.80;74.03
39455;BME280;25155;41.890;23.446;2023-05-23T04:42:04;91738.25;;;10.79;75.28
39455;BME280;25155;41.890;23.446;2023-05-23T04:44:31;91736.72;;;10.73;76.88
39455;BME280;25155;41.890;23.446;2023-05-23T04:47:01;91726.81;;;10.70;76.23
39455;BME280;25155;41.890;23.446;2023-05-23T04:49:29;91725.25;;;10.74;75.98
39455;BME280;25155;41.890;23.446;2023-05-23T04:51:58;91728.84;;;10.78;76.34
39455;BME280;25155;41.890;23.446;2023-05-23T04:54:26;91726.22;;;10.83;76.59
39455;BME280;25155;41.890;23.446;2023-05-23T04:56:53;91728.03;;;10.88;75.98
39455;BME280;25155;41.890;23.446;2023-05-23T04:59:20;91734.81;;;10.89;75.86
39455;BME280;25155;41.890;23.446;2023-05-23T05:01:47;91734.28;;;10.87;75.54
39455;BME280;25155;41.890;23.446;2023-05-23T05:04:14;91730.91;;;10.86;75.37
39455;BME280;25155;41.890;23.446;2023-05-23T05:06:42;91740.56;;;10.86;75.06
39455;BME280;25155;41.890;23.446;2023-05-23T05:09:10;91741.31;;;10.92;75.56
39455;BME280;25155;41.890;23.446;2023-05-23T05:11:38;91731.91;;;10.96;75.00
39455;BME280;25155;41.890;23.446;2023-05-23T05:14:05;91732.66;;;11.01;74.85
39455;BME280;25155;41.890;23.446;2023-05-23T05:16:32;91743.28;;;11.10;74.88
39455;BME280;25155;41.890;23.446;2023-05-23T05:18:59;91736.50;;;11.14;74.50
39455;BME280;25155;41.890;23.446;2023-05-23T05:21:26;91735.66;;;11.24;74.25
39455;BME280;25155;41.890;23.446;2023-05-23T05:23:53;91740.59;;;11.31;74.01
39455;BME280;25155;41.890;23.446;2023-05-23T05:26:20;91740.81;;;11.34;73.59
39455;BME280;25155;41.890;23.446;2023-05-23T05:28:49;91745.50;;;11.37;72.85
39455;BME280;25155;41.890;23.446;2023-05-23T05:31:16;91743.91;;;11.36;72.67
39455;BME280;25155;41.890;23.446;2023-05-23T05:33:43;91742.09;;;11.37;72.60
39455;BME280;25155;41.890;23.446;2023-05-23T05:36:10;91747.53;;;11.45;73.51
39455;BME280;25155;41.890;23.446;2023-05-23T05:38:36;91755.06;;;11.52;73.16
39455;BME280;25155;41.890;23.446;2023-05-23T05:41:04;91756.56;;;11.58;73.14
39455;BME280;25155;41.890;23.446;2023-05-23T05:43:31;91758.59;;;11.67;73.62
39455;BME280;25155;41.890;23.446;2023-05-23T05:45:59;91755.88;;;11.82;73.15
39455;BME280;25155;41.890;23.446;2023-05-23T05:48:26;91755.03;;;11.92;73.98
39455;BME280;25155;41.890;23.446;2023-05-23T05:50:53;91756.00;;;12.01;74.09
39455;BME280;25155;41.890;23.446;2023-05-23T05:53:20;91762.47;;;12.09;74.06
39455;BME280;25155;41.890;23.446;2023-05-23T05:55:47;91755.28;;;12.19;73.90
39455;BME280;25155;41.890;23.446;2023-05-23T05:58:14;91755.97;;;12.30;73.46
39455;BME280;25155;41.890;23.446;2023-05-23T06:00:40;91760.63;;;12.39;73.06
39455;BME280;25155;41.890;23.446;2023-05-23T06:03:09;91761.56;;;12.48;73.42
39455;BME280;25155;41.890;23.446;2023-05-23T06:05:37;91757.59;;;12.50;72.78
39455;BME280;25155;41.890;23.446;2023-05-23T06:08:05;91755.22;;;12.54;72.50
39455;BME280;25155;41.890;23.446;2023-05-23T06:10:31;91749.09;;;12.64;72.31
39455;BME280;25155;41.890;23.446;2023-05-23T06:12:59;91751.91;;;12.67;70.32
39455;BME280;25155;41.890;23.446;2023-05-23T06:15:26;91748.75;;;12.70;70.28
39455;BME280;25155;41.890;23.446;2023-05-23T06:17:53;91734.84;;;12.75;71.28
39455;BME280;25155;41.890;23.446;2023-05-23T06:20:21;91741.78;;;12.85;71.79
39455;BME280;25155;41.890;23.446;2023-05-23T06:22:48;91735.44;;;12.91;71.61
39455;BME280;25155;41.890;23.446;2023-05-23T06:25:15;91730.06;;;13.01;71.80
39455;BME280;25155;41.890;23.446;2023-05-23T06:27:42;91736.22;;;13.10;71.31
39455;BME280;25155;41.890;23.446;2023-05-23T06:30:11;91726.88;;;13.23;71.13
39455;BME280;25155;41.890;23.446;2023-05-23T06:32:38;91728.31;;;13.35;71.16
39455;BME280;25155;41.890;23.446;2023-05-23T06:35:06;91724.50;;;13.46;71.18
39455;BME280;25155;41.890;23.446;2023-05-23T06:37:35;91731.44;;;13.56;70.96
39455;BME280;25155;41.890;23.446;2023-05-23T06:40:02;91728.44;;;13.62;70.63
39455;BME280;25155;41.890;23.446;2023-05-23T06:42:29;91727.78;;;13.71;69.03
39455;BME280;25155;41.890;23.446;2023-05-23T06:44:56;91723.16;;;13.81;67.58
39455;BME280;25155;41.890;23.446;2023-05-23T06:47:23;91727.16;;;13.93;66.04
39455;BME280;25155;41.890;23.446;2023-05-23T06:49:50;91724.75;;;13.96;62.44
39455;BME280;25155;41.890;23.446;2023-05-23T06:52:17;91720.97;;;14.02;62.79
39455;BME280;25155;41.890;23.446;2023-05-23T06:54:45;91719.75;;;14.14;62.89
39455;BME280;25155;41.890;23.446;2023-05-23T06:57:12;91716.25;;;14.18;61.70
39455;BME280;25155;41.890;23.446;2023-05-23T06:59:39;91719.94;;;14.31;62.73
39455;BME280;25155;41.890;23.446;2023-05-23T07:02:06;91714.03;;;14.39;63.05
39455;BME280;25155;41.890;23.446;2023-05-23T07:04:33;91708.28;;;14.51;63.30
39455;BME280;25155;41.890;23.446;2023-05-23T07:07:00;91708.16;;;14.62;61.54
39455;BME280;25155;41.890;23.446;2023-05-23T07:09:27;91702.69;;;14.72;60.71
39455;BME280;25155;41.890;23.446;2023-05-23T07:11:55;91702.66;;;14.86;60.57
39455;BME280;25155;41.890;23.446;2023-05-23T07:14:23;91693.69;;;15.01;60.25
39455;BME280;25155;41.890;23.446;2023-05-23T07:16:50;91691.16;;;15.09;59.04
39455;BME280;25155;41.890;23.446;2023-05-23T07:19:17;91691.41;;;15.22;59.51
39455;BME280;25155;41.890;23.446;2023-05-23T07:21:43;91686.22;;;15.30;60.76
39455;BME280;25155;41.890;23.446;2023-05-23T07:24:10;91682.88;;;15.39;59.37
39455;BME280;25155;41.890;23.446;2023-05-23T07:26:37;91680.00;;;15.49;59.58
39455;BME280;25155;41.890;23.446;2023-05-23T07:29:05;91681.34;;;15.60;59.54
39455;BME280;25155;41.890;23.446;2023-05-23T07:31:33;91681.03;;;15.76;60.27
39455;BME280;25155;41.890;23.446;2023-05-23T07:34:00;91679.38;;;15.89;58.56
39455;BME280;25155;41.890;23.446;2023-05-23T07:36:27;91683.47;;;16.03;58.59
39455;BME280;25155;41.890;23.446;2023-05-23T07:38:58;91675.69;;;16.21;58.73
39455;BME280;25155;41.890;23.446;2023-05-23T07:41:25;91676.06;;;16.37;57.36
39455;BME280;25155;41.890;23.446;2023-05-23T07:43:52;91666.78;;;16.48;54.08
39455;BME280;25155;41.890;23.446;2023-05-23T07:46:20;91675.34;;;16.54;52.29
39455;BME280;25155;41.890;23.446;2023-05-23T07:48:47;91662.50;;;16.61;51.89
39455;BME280;25155;41.890;23.446;2023-05-23T07:51:14;91673.69;;;16.75;52.02
39455;BME280;25155;41.890;23.446;2023-05-23T07:53:45;91670.31;;;16.84;50.26
39455;BME280;25155;41.890;23.446;2023-05-23T07:56:12;91670.03;;;16.94;49.85
39455;BME280;25155;41.890;23.446;2023-05-23T07:58:40;91662.31;;;17.06;50.27
39455;BME280;25155;41.890;23.446;2023-05-23T08:01:07;91668.50;;;17.19;48.19
39455;BME280;25155;41.890;23.446;2023-05-23T08:03:35;91671.63;;;17.30;46.16
39455;BME280;25155;41.890;23.446;2023-05-23T08:06:02;91667.13;;;17.30;45.19
39455;BME280;25155;41.890;23.446;2023-05-23T08:08:32;91666.19;;;17.35;44.86
39455;BME280;25155;41.890;23.446;2023-05-23T08:10:59;91668.66;;;17.49;45.72
39455;BME280;25155;41.890;23.446;2023-05-23T08:13:26;91665.56;;;17.56;45.71
39455;BME280;25155;41.890;23.446;2023-05-23T08:15:53;91668.50;;;17.63;45.93
39455;BME280;25155;41.890;23.446;2023-05-23T08:18:20;91670.38;;;17.71;45.58
39455;BME280;25155;41.890;23.446;2023-05-23T08:20:49;91669.56;;;17.79;47.24
39455;BME280;25155;41.890;23.446;2023-05-23T08:23:16;91676.06;;;17.91;46.03
39455;BME280;25155;41.890;23.446;2023-05-23T08:25:43;91662.09;;;17.99;42.87
39455;BME280;25155;41.890;23.446;2023-05-23T08:28:10;91659.63;;;18.02;43.24
39455;BME280;25155;41.890;23.446;2023-05-23T08:30:37;91653.88;;;18.09;42.93
39455;BME280;25155;41.890;23.446;2023-05-23T08:33:03;91653.06;;;18.08;40.93
39455;BME280;25155;41.890;23.446;2023-05-23T08:35:31;91651.94;;;18.18;43.50
39455;BME280;25155;41.890;23.446;2023-05-23T08:38:03;91649.91;;;18.33;43.91
39455;BME280;25155;41.890;23.446;2023-05-23T08:40:30;91648.59;;;18.48;44.63
39455;BME280;25155;41.890;23.446;2023-05-23T08:42:57;91649.91;;;18.62;42.18
39455;BME280;25155;41.890;23.446;2023-05-23T08:45:24;91643.81;;;18.71;44.70
39455;BME280;25155;41.890;23.446;2023-05-23T08:47:51;91648.66;;;18.69;43.38
39455;BME280;25155;41.890;23.446;2023-05-23T08:50:21;91644.00;;;18.66;44.59
39455;BME280;25155;41.890;23.446;2023-05-23T08:52:49;91644.91;;;18.70;42.21
39455;BME280;25155;41.890;23.446;2023-05-23T08:55:21;91633.94;;;18.80;42.95
39455;BME280;25155;41.890;23.446;2023-05-23T08:57:49;91635.13;;;19.00;44.78
39455;BME280;25155;41.890;23.446;2023-05-23T09:00:16;91630.75;;;19.25;45.32
39455;BME280;25155;41.890;23.446;2023-05-23T09:02:44;91639.84;;;19.36;41.49
39455;BME280;25155;41.890;23.446;2023-05-23T09:05:12;91644.13;;;19.41;40.99
39455;BME280;25155;41.890;23.446;2023-05-23T09:07:39;91631.63;;;19.50;41.21
39455;BME280;25155;41.890;23.446;2023-05-23T09:10:08;91636.19;;;19.62;40.49
39455;BME280;25155;41.890;23.446;2023-05-23T09:12:38;91626.50;;;19.66;40.70
39455;BME280;25155;41.890;23.446;2023-05-23T09:15:06;91631.09;;;19.78;42.91
39455;BME280;25155;41.890;23.446;2023-05-23T09:17:33;91628.38;;;19.99;42.37
39455;BME280;25155;41.890;23.446;2023-05-23T09:20:00;91630.50;;;20.18;41.47
39455;BME280;25155;41.890;23.446;2023-05-23T09:22:29;91629.09;;;20.33;42.63
39455;BME280;25155;41.890;23.446;2023-05-23T09:24:56;91629.31;;;20.53;42.77
39455;BME280;25155;41.890;23.446;2023-05-23T09:27:24;91630.56;;;20.68;39.40
39455;BME280;25155;41.890;23.446;2023-05-23T09:29:52;91628.03;;;20.71;39.72
39455;BME280;25155;41.890;23.446;2023-05-23T09:32:19;91619.63;;;20.69;35.47
39455;BME280;25155;41.890;23.446;2023-05-23T09:34:55;91615.44;;;20.68;38.06
39455;BME280;25155;41.890;23.446;2023-05-23T09:37:24;91619.38;;;20.87;41.61
39455;BME280;25155;41.890;23.446;2023-05-23T09:40:00;91615.41;;;21.05;40.85
39455;BME280;25155;41.890;23.446;2023-05-23T09:42:31;91611.59;;;21.18;39.20
39455;BME280;25155;41.890;23.446;2023-05-23T09:45:00;91615.25;;;21.14;37.11
39455;BME280;25155;41.890;23.446;2023-05-23T09:47:27;91610.13;;;20.80;35.53
39455;BME280;25155;41.890;23.446;2023-05-23T09:49:54;91611.00;;;20.60;35.80
39455;BME280;25155;41.890;23.446;2023-05-23T09:52:21;91619.22;;;20.67;38.09
39455;BME280;25155;41.890;23.446;2023-05-23T09:54:48;91619.19;;;20.79;36.41
39455;BME280;25155;41.890;23.446;2023-05-23T09:57:15;91606.47;;;20.97;37.49
39455;BME280;25155;41.890;23.446;2023-05-23T09:59:44;91605.31;;;21.11;35.94
39455;BME280;25155;41.890;23.446;2023-05-23T10:02:22;91603.66;;;21.06;36.89
39455;BME280;25155;41.890;23.446;2023-05-23T10:04:53;91601.50;;;20.96;36.40
39455;BME280;25155;41.890;23.446;2023-05-23T10:07:21;91610.78;;;20.90;34.99
39455;BME280;25155;41.890;23.446;2023-05-23T10:09:52;91608.81;;;20.74;35.13
39455;BME280;25155;41.890;23.446;2023-05-23T10:15:12;91612.22;;;20.87;35.19
39455;BME280;25155;41.890;23.446;2023-05-23T10:17:49;91607.78;;;20.91;35.92
39455;BME280;25155;41.890;23.446;2023-05-23T10:20:17;91604.81;;;20.93;36.61
39455;BME280;25155;41.890;23.446;2023-05-23T10:22:47;91604.13;;;20.96;35.87
39455;BME280;25155;41.890;23.446;2023-05-23T10:25:15;91606.88;;;20.99;34.38
39455;BME280;25155;41.890;23.446;2023-05-23T10:27:43;91605.56;;;21.06;34.82
39455;BME280;25155;41.890;23.446;2023-05-23T10:30:11;91597.69;;;21.09;36.85
39455;BME280;25155;41.890;23.446;2023-05-23T10:32:38;91597.69;;;21.09;34.47
39455;BME280;25155;41.890;23.446;2023-05-23T10:35:09;91594.81;;;21.14;36.12
39455;BME280;25155;41.890;23.446;2023-05-23T10:37:39;91594.28;;;21.09;34.75
39455;BME280;25155;41.890;23.446;2023-05-23T10:40:11;91594.38;;;21.12;33.97
39455;BME280;25155;41.890;23.446;2023-05-23T10:42:41;91590.78;;;21.33;33.62
39455;BME280;25155;41.890;23.446;2023-05-23T10:45:15;91579.56;;;21.52;34.17
39455;BME280;25155;41.890;23.446;2023-05-23T10:47:42;91586.16;;;21.58;32.43
39455;BME280;25155;41.890;23.446;2023-05-23T10:50:12;91578.25;;;21.46;31.77
39455;BME280;25155;41.890;23.446;2023-05-23T10:52:40;91577.38;;;21.42;31.18
39455;BME280;25155;41.890;23.446;2023-05-23T10:55:14;91575.06;;;21.40;31.02
39455;BME280;25155;41.890;23.446;2023-05-23T10:57:42;91578.13;;;21.54;33.12
39455;BME280;25155;41.890;23.446;2023-05-23T11:00:13;91586.88;;;21.71;33.15
39455;BME280;25155;41.890;23.446;2023-05-23T11:02:46;91583.34;;;21.95;33.27
39455;BME280;25155;41.890;23.446;2023-05-23T11:05:20;91572.28;;;22.09;31.81
39455;BME280;25155;41.890;23.446;2023-05-23T11:10:30;91573.97;;;22.29;30.61
39455;BME280;25155;41.890;23.446;2023-05-23T11:13:04;91577.03;;;22.47;30.71
39455;BME280;25155;41.890;23.446;2023-05-23T11:15:40;91577.41;;;22.65;30.94
39455;BME280;25155;41.890;23.446;2023-05-23T11:18:09;91573.78;;;22.74;33.31
39455;BME280;25155;41.890;23.446;2023-05-23T11:20:38;91562.13;;;22.78;32.81
39455;BME280;25155;41.890;23.446;2023-05-23T11:23:06;91565.78;;;22.90;33.32
39455;BME280;25155;41.890;23.446;2023-05-23T11:25:40;91563.78;;;23.02;30.16
39455;BME280;25155;41.890;23.446;2023-05-23T11:28:07;91559.09;;;22.96;29.49
39455;BME280;25155;41.890;23.446;2023-05-23T11:30:35;91567.09;;;22.80;29.94
39455;BME280;25155;41.890;23.446;2023-05-23T11:33:06;91557.44;;;22.56;31.28
39455;BME280;25155;41.890;23.446;2023-05-23T11:35:35;91563.41;;;22.33;31.47
39455;BME280;25155;41.890;23.446;2023-05-23T11:38:04;91558.25;;;22.24;31.32
39455;BME280;25155;41.890;23.446;2023-05-23T11:40:31;91555.22;;;22.26;32.41
39455;BME280;25155;41.890;23.446;2023-05-23T11:42:59;91559.88;;;22.13;31.82
39455;BME280;25155;41.890;23.446;2023-05-23T11:45:26;91555.75;;;22.00;32.34
39455;BME280;25155;41.890;23.446;2023-05-23T11:47:54;91551.28;;;22.04;31.65
39455;BME280;25155;41.890;23.446;2023-05-23T11:50:21;91545.56;;;22.18;32.63
39455;BME280;25155;41.890;23.446;2023-05-23T11:52:49;91548.75;;;22.39;31.24
39455;BME280;25155;41.890;23.446;2023-05-23T11:55:18;91550.19;;;22.53;31.26
39455;BME280;25155;41.890;23.446;2023-05-23T11:57:45;91547.59;;;22.56;30.97
39455;BME280;25155;41.890;23.446;2023-05-23T12:00:13;91539.97;;;22.55;30.21
39455;BME280;25155;41.890;23.446;2023-05-23T12:02:40;91536.91;;;22.53;32.40
39455;BME280;25155;41.890;23.446;2023-05-23T12:05:08;91536.44;;;22.66;31.90
39455;BME280;25155;41.890;23.446;2023-05-23T12:07:36;91532.19;;;22.81;28.89
39455;BME280;25155;41.890;23.446;2023-05-23T12:10:06;91528.91;;;22.88;30.28
39455;BME280;25155;41.890;23.446;2023-05-23T12:12:35;91529.56;;;23.01;30.16
39455;BME280;25155;41.890;23.446;2023-05-23T12:15:03;91532.03;;;23.10;31.32
39455;BME280;25155;41.890;23.446;2023-05-23T12:17:30;91531.34;;;23.13;27.79
39455;BME280;25155;41.890;23.446;2023-05-23T12:19:58;91543.94;;;23.16;29.26
39455;BME280;25155;41.890;23.446;2023-05-23T12:22:25;91526.16;;;23.20;28.04
39455;BME280;25155;41.890;23.446;2023-05-23T12:24:58;91535.75;;;23.25;28.47
39455;BME280;25155;41.890;23.446;2023-05-23T12:27:25;91525.31;;;23.35;28.70
39455;BME280;25155;41.890;23.446;2023-05-23T12:30:04;91521.84;;;23.54;28.42
39455;BME280;25155;41.890;23.446;2023-05-23T12:32:32;91527.97;;;23.78;28.42
39455;BME280;25155;41.890;23.446;2023-05-23T12:35:00;91542.06;;;23.98;28.84
39455;BME280;25155;41.890;23.446;2023-05-23T12:37:27;91551.69;;;24.06;33.19
39455;BME280;25155;41.890;23.446;2023-05-23T12:39:55;91547.09;;;24.03;34.25
39455;BME280;25155;41.890;23.446;2023-05-23T12:42:22;91547.53;;;23.86;34.07
39455;BME280;25155;41.890;23.446;2023-05-23T12:44:50;91545.59;;;23.63;33.47
39455;BME280;25155;41.890;23.446;2023-05-23T12:47:19;91551.22;;;23.38;34.58
39455;BME280;25155;41.890;23.446;2023-05-23T12:49:46;91540.72;;;23.26;34.73
39455;BME280;25155;41.890;23.446;2023-05-23T12:52:13;91539.03;;;23.18;35.25
39455;BME280;25155;41.890;23.446;2023-05-23T12:54:39;91540.09;;;23.13;35.97
39455;BME280;25155;41.890;23.446;2023-05-23T12:57:06;91541.56;;;23.11;35.84
39455;BME280;25155;41.890;23.446;2023-05-23T12:59:33;91537.34;;;23.10;36.09
39455;BME280;25155;41.890;23.446;2023-05-23T13:02:00;91549.34;;;23.03;35.74
39455;BME280;25155;41.890;23.446;2023-05-23T13:04:28;91538.50;;;22.93;35.72